createdAt,value
2023-03-20T00:02:48.838Z,1024.6
2023-03-20T00:08:02.086Z,1024.6
2023-03-20T00:13:35.603Z,1024.6
2023-03-20T00:19:17.536Z,1024.8
2023-03-20T00:25:01.698Z,1024.6
2023-03-20T00:30:37.412Z,1024.8
2023-03-20T00:36:06.389Z,1024.7
2023-03-20T00:41:25.109Z,1024.7
2023-03-20T00:46:55.218Z,1024.7
2023-03-20T00:52:24.887Z,1024.7
2023-03-20T01:09:19.773Z,1024.5
2023-03-20T01:15:02.415Z,1024.6
2023-03-20T01:20:32.327Z,1024.8
2023-03-20T01:26:10.642Z,1024.9
2023-03-20T01:37:19.137Z,1025.1
2023-03-20T01:42:52.642Z,1025
2023-03-20T01:48:08.691Z,1024.9
2023-03-20T01:53:30.829Z,1024.9
2023-03-20T01:59:17.831Z,1024.9
2023-03-20T02:04:58.961Z,1025
2023-03-20T02:10:30.740Z,1025.1
2023-03-20T02:15:49.260Z,1025
2023-03-20T02:21:20.108Z,1025.1
2023-03-20T02:27:04.909Z,1025
2023-03-20T02:32:36.500Z,1024.9
2023-03-20T02:38:10.021Z,1025
2023-03-20T02:43:36.820Z,1025.1
2023-03-20T02:49:06.569Z,1025.2
2023-03-20T02:54:49.227Z,1025.1
2023-03-20T03:00:33.304Z,1025.3
2023-03-20T03:06:00.298Z,1025
2023-03-20T03:11:14.782Z,1025.1
2023-03-20T03:16:52.575Z,1025.2
2023-03-20T03:22:31.898Z,1025.2
2023-03-20T03:27:59.467Z,1025.2
2023-03-20T03:33:39.017Z,1025.3
2023-03-20T03:39:25.702Z,1025.4
2023-03-20T03:44:56.779Z,1025.4
2023-03-20T03:50:27.010Z,1025.4
2023-03-20T03:55:58.663Z,1025.6
2023-03-20T04:01:25.155Z,1025.6
2023-03-20T04:06:48.539Z,1025.7
2023-03-20T04:12:32.703Z,1025.8
2023-03-20T04:17:56.734Z,1025.7
2023-03-20T04:23:36.494Z,1025.7
2023-03-20T04:29:21.348Z,1025.7
2023-03-20T04:34:30.039Z,1025.7
2023-03-20T04:40:18.952Z,1025.7
2023-03-20T04:45:58.327Z,1025.8
2023-03-20T04:51:20.128Z,1025.8
2023-03-20T04:56:47.886Z,1025.7
2023-03-20T05:02:17.876Z,1025.9
2023-03-20T05:07:57.333Z,1025.9
2023-03-20T05:13:39.944Z,1026
2023-03-20T05:19:13.343Z,1026.2
2023-03-20T05:24:38.943Z,1026
2023-03-20T05:30:05.157Z,1025.9
2023-03-20T05:35:54.379Z,1025.9
2023-03-20T05:41:05.681Z,1026.1
2023-03-20T05:46:46.821Z,1026
2023-03-20T05:52:14.076Z,1026.1
2023-03-20T05:58:09.264Z,1026.1
2023-03-20T06:03:40.964Z,1026.1
2023-03-20T06:08:57.439Z,1026.2
2023-03-20T06:14:34.979Z,1026.5
2023-03-20T06:20:03.184Z,1026.4
2023-03-20T06:25:35.060Z,1026.3
2023-03-20T06:31:15.684Z,1026.2
2023-03-20T06:36:44.668Z,1026.2
2023-03-20T06:42:19.624Z,1026.1
2023-03-20T06:47:56.466Z,1025.9
2023-03-20T06:53:38.911Z,1025.8
2023-03-20T06:58:47.283Z,1025.7
2023-03-20T07:04:37.749Z,1025.7
2023-03-20T07:10:09.828Z,1025.7
2023-03-20T07:15:57.646Z,1025.5
2023-03-20T07:21:02.331Z,1025.6
2023-03-20T07:26:52.477Z,1025.6
2023-03-20T07:32:19.836Z,1025.7
2023-03-20T07:37:49.081Z,1025.6
2023-03-20T07:43:12.751Z,1025.5
2023-03-20T07:49:00.840Z,1025.6
2023-03-20T07:54:44.145Z,1025.5
2023-03-20T08:00:16.955Z,1025.7
2023-03-20T08:05:27.656Z,1025.7
2023-03-20T08:11:08.802Z,1025.6
2023-03-20T08:17:13.507Z,1025.6
2023-03-20T08:22:27.329Z,1025.4
2023-03-20T08:28:12.209Z,1025.2
2023-03-20T08:33:20.078Z,1025
2023-03-20T08:39:14.818Z,1024.8
2023-03-20T08:44:46.420Z,1024.5
2023-03-20T08:50:11.093Z,1024.1
2023-03-20T08:56:04.274Z,1023.9
2023-03-20T09:01:16.389Z,1023.7
2023-03-20T09:07:18.312Z,1023.7
2023-03-20T09:12:37.240Z,1023.8
2023-03-20T09:18:12.605Z,1023.7
2023-03-20T09:24:03.824Z,1023.4
2023-03-20T09:29:41.503Z,1023.6
2023-03-20T09:34:48.485Z,1023.5
2023-03-20T09:40:32.328Z,1023.5
2023-03-20T09:46:00.980Z,1023.3
2023-03-20T09:51:40.548Z,1023.4
2023-03-20T09:57:17.572Z,1023.5
2023-03-20T10:02:59.420Z,1023.5
2023-03-20T10:08:23.612Z,1023.6
2023-03-20T10:14:14.439Z,1023.6
2023-03-20T10:19:37.656Z,1023.5
2023-03-20T10:25:15.803Z,1023.3
2023-03-20T10:30:52.272Z,1023.5
2023-03-20T14:21:00.975Z,1021.3
2023-03-20T14:37:34.628Z,1021.5
2023-03-20T14:43:13.725Z,1021.3
2023-03-20T14:54:29.678Z,1021.1
2023-03-20T15:28:06.194Z,1020.9
2023-03-20T15:33:36.446Z,1021
2023-03-20T15:39:23.930Z,1020.9
2023-03-20T15:45:02.015Z,1020.9
2023-03-20T15:50:25.534Z,1021
2023-03-20T15:56:19.646Z,1021
2023-03-20T16:01:54.715Z,1020.9
2023-03-20T16:07:23.553Z,1021
2023-03-20T16:18:27.479Z,1021
2023-03-20T16:23:54.163Z,1021
2023-03-20T16:35:05.510Z,1021.1
2023-03-20T16:40:59.326Z,1021.3
2023-03-20T16:46:09.578Z,1021.3
2023-03-20T16:52:00.971Z,1021.3
2023-03-20T16:57:16.818Z,1021.4
2023-03-20T17:02:56.647Z,1021.3
2023-03-20T17:08:26.239Z,1021.4
2023-03-20T17:14:19.405Z,1021.5
2023-03-20T17:25:06.243Z,1022
2023-03-20T17:30:44.813Z,1022.2
2023-03-20T17:36:17.866Z,1022.2
2023-03-20T17:42:04.707Z,1021.9
2023-03-20T17:47:30.608Z,1021.9
2023-03-20T17:53:18.132Z,1022.1
2023-03-20T17:58:54.975Z,1022.1
2023-03-20T18:04:16.776Z,1022.2
2023-03-20T18:09:43.414Z,1022.3
2023-03-20T18:15:12.731Z,1022.2
2023-03-20T18:21:01.784Z,1022.2
2023-03-20T18:26:18.217Z,1022.2
2023-03-20T18:31:49.947Z,1022.3
2023-03-20T18:37:41.143Z,1022.4
2023-03-20T18:43:13.101Z,1022.3
2023-03-20T18:48:39.483Z,1022.3
2023-03-20T18:54:04.037Z,1022.5
2023-03-20T18:59:42.594Z,1022.6
2023-03-20T19:05:31.917Z,1022.5
2023-03-20T19:11:04.760Z,1022.6
2023-03-20T19:16:46.183Z,1022.7
2023-03-20T19:22:22.650Z,1022.9
2023-03-20T19:27:46.724Z,1023
2023-03-20T19:33:20.375Z,1023
2023-03-20T19:38:43.025Z,1023.1
2023-03-20T19:44:40.244Z,1022.9
2023-03-20T19:50:10.839Z,1022.8
2023-03-20T19:55:36.360Z,1022.9
2023-03-20T20:01:02.093Z,1023
2023-03-20T20:06:42.272Z,1023
2023-03-20T20:12:09.502Z,1022.9
2023-03-20T20:17:47.627Z,1023.1
2023-03-20T20:23:27.056Z,1023.2
2023-03-20T20:28:48.113Z,1023.1
2023-03-20T20:40:12.538Z,1023.2
2023-03-20T20:45:49.065Z,1023.2
2023-03-20T20:51:06.545Z,1023.2
2023-03-20T20:56:35.951Z,1022.7
2023-03-20T21:02:05.219Z,1022.8
2023-03-20T21:07:45.381Z,1022.9
2023-03-20T21:13:19.640Z,1022.9
2023-03-20T21:19:11.570Z,1022.9
2023-03-20T21:24:32.589Z,1023.3
2023-03-20T21:30:17.879Z,1023.4
2023-03-20T21:35:32.170Z,1023.3
2023-03-20T21:41:24.290Z,1023.3
2023-03-20T21:47:09.593Z,1023.3
2023-03-20T22:03:34.821Z,1023.4
2023-03-20T22:31:51.835Z,1023.3
2023-03-20T22:42:49.316Z,1023.5
2023-03-20T22:47:42.511Z,1023.4
2023-03-20T22:53:24.920Z,1023.4
2023-03-20T22:58:59.866Z,1023.5
2023-03-20T23:04:15.778Z,1023.4
2023-03-20T23:15:19.968Z,1023.5
2023-03-20T23:21:15.803Z,1023.6
2023-03-20T23:26:49.031Z,1023.7
2023-03-20T23:32:15.167Z,1023.8
2023-03-20T23:37:36.930Z,1023.8
2023-03-20T23:43:21.957Z,1023.9
2023-03-20T23:48:53.154Z,1023.8
2023-03-20T23:54:20.486Z,1023.7
2023-03-20T23:59:49.224Z,1023.7
